Time;durP1;ratioP1;P1;durP2;ratioP2;P2;SDS_P1;SDS_P2;PMS_P1;PMS_P2;Temp;Humidity;BMP_temperature;BMP_pressure;BME280_temperature;BME280_humidity;BME280_pressure;Samples;Min_cycle;Max_cycle;Signal;HPM_P1;HPM_P2
2023/08/17 06:40:34;;;;;;;26.45;15.25;;;;;;;18.94;100.00;96731.47;2096491;28;20539;-66
2023/08/17 06:42:52;;;;;;;26.77;14.32;;;;;;;19.09;100.00;96740.84;2089277;28;20547;-67
2023/08/17 06:45:08;;;;;;;20.45;12.70;;;;;;;19.21;100.00;96738.22;2092316;28;20543;-67
2023/08/17 06:47:33;;;;;;;23.13;14.18;;;;;;;19.16;100.00;96740.38;2112475;27;20554;-67
2023/08/17 06:49:57;;;;;;;19.30;13.95;;;;;;;19.17;100.00;96742.94;2093153;28;20544;-67
2023/08/17 06:52:28;;;;;;;19.42;12.43;;;;;;;19.34;100.00;96746.06;2095890;28;21041;-67
2023/08/17 06:55:00;;;;;;;23.95;13.43;;;;;;;19.27;100.00;96745.66;2105534;27;20889;-67
2023/08/17 07:01:59;;;;;;;17.50;11.93;;;;;;;19.50;100.00;96735.06;2089471;28;20551;-67
2023/08/17 07:03:01;;;;;;;16.98;10.40;;;;;;;19.75;100.00;96739.25;2088781;28;20647;-67
2023/08/17 07:04:03;;;;;;;19.30;12.70;;;;;;;19.94;99.56;96737.81;2088577;28;20268;-67
2023/08/17 07:06:34;;;;;;;21.13;12.65;;;;;;;20.14;98.58;96739.66;2088119;27;20923;-67
2023/08/17 07:07:35;;;;;;;16.67;11.82;;;;;;;20.17;98.30;96733.28;2088536;28;20191;-67
2023/08/17 07:08:37;;;;;;;17.38;11.90;;;;;;;20.24;98.53;96739.75;2083706;28;20200;-67
2023/08/17 07:09:38;;;;;;;24.52;13.02;;;;;;;20.60;97.15;96739.47;2075386;28;20190;-67
2023/08/17 07:10:40;;;;;;;16.63;10.82;;;;;;;20.62;95.28;96741.03;2072046;28;20179;-69
2023/08/17 07:11:41;;;;;;;16.50;10.85;;;;;;;20.82;94.84;96741.19;2072279;28;20257;-69
2023/08/17 07:12:43;;;;;;;16.35;10.88;;;;;;;21.23;93.19;96734.16;2072345;28;20178;-69
2023/08/17 07:13:44;;;;;;;15.00;10.43;;;;;;;21.19;92.87;96733.56;2072371;28;20269;-69
2023/08/17 07:14:46;;;;;;;16.70;11.13;;;;;;;21.21;92.31;96738.75;2079205;28;20284;-69
2023/08/17 07:15:47;;;;;;;13.98;10.63;;;;;;;21.39;91.06;96740.78;2081353;28;20204;-69
2023/08/17 07:16:48;;;;;;;18.05;10.00;;;;;;;21.57;90.71;96735.69;2088854;28;20185;-69
2023/08/17 07:17:50;;;;;;;15.38;8.60;;;;;;;21.90;90.76;96745.13;2083205;28;20197;-69
2023/08/17 07:18:51;;;;;;;11.88;9.32;;;;;;;22.17;88.59;96741.00;2080399;28;20613;-69
2023/08/17 07:19:53;;;;;;;12.63;9.30;;;;;;;22.39;87.25;96742.56;2080650;28;20181;-69
2023/08/17 07:21:14;;;;;;;13.43;8.95;;;;;;;22.32;87.78;96734.28;2083030;28;20667;-69
2023/08/17 07:22:16;;;;;;;11.88;7.90;;;;;;;22.43;86.43;96741.28;2080752;28;20648;-69
2023/08/17 07:23:17;;;;;;;12.95;8.32;;;;;;;22.61;86.00;96745.91;2080519;28;20193;-69
2023/08/17 07:24:19;;;;;;;12.60;7.05;;;;;;;22.64;85.08;96743.81;2082722;28;20268;-69
2023/08/17 07:25:20;;;;;;;10.75;7.03;;;;;;;22.62;86.48;96740.44;2085849;28;20219;-69
2023/08/17 07:26:22;;;;;;;10.27;7.00;;;;;;;22.60;85.80;96747.75;2087747;28;20685;-69
2023/08/17 07:27:24;;;;;;;14.18;7.70;;;;;;;23.00;84.53;96746.69;2082096;28;20263;-70
2023/08/17 07:28:26;;;;;;;10.40;7.30;;;;;;;23.31;80.96;96743.84;2082729;28;20796;-70
2023/08/17 07:29:28;;;;;;;9.82;6.78;;;;;;;22.85;84.10;96742.78;2081927;28;20193;-70
2023/08/17 07:30:29;;;;;;;9.73;7.90;;;;;;;23.08;82.61;96734.47;2079775;28;20767;-70
2023/08/17 07:31:33;;;;;;;9.30;7.25;;;;;;;23.08;84.17;96751.28;2081194;28;20270;-70
2023/08/17 07:32:34;;;;;;;9.02;6.65;;;;;;;23.29;83.76;96750.28;2080823;28;20335;-70
2023/08/17 07:33:36;;;;;;;12.68;7.20;;;;;;;22.82;84.20;96743.91;2084095;28;20278;-70
2023/08/17 07:34:38;;;;;;;13.38;6.70;;;;;;;23.02;84.14;96735.91;2081111;28;20193;-70
2023/08/17 07:35:39;;;;;;;10.40;6.25;;;;;;;22.99;85.27;96739.69;2078744;28;20669;-70
2023/08/17 07:36:41;;;;;;;11.18;6.10;;;;;;;23.66;83.09;96740.59;2082588;28;20679;-70
2023/08/17 07:37:42;;;;;;;10.05;5.90;;;;;;;23.50;83.54;96742.06;2081398;28;20205;-70
2023/08/17 07:38:53;;;;;;;13.65;7.20;;;;;;;24.55;78.60;96747.84;2080919;28;20247;-70
2023/08/17 07:39:55;;;;;;;12.10;7.32;;;;;;;24.29;78.04;96737.13;2077833;28;20236;-70
2023/08/17 07:40:57;;;;;;;48.25;37.80;;;;;;;24.40;79.27;96739.53;2074677;28;20228;-70
2023/08/17 07:41:58;;;;;;;11.73;6.78;;;;;;;24.51;77.51;96735.81;2080907;28;20202;-68
2023/08/17 07:43:01;;;;;;;14.98;6.82;;;;;;;24.18;78.69;96748.03;2080409;28;20193;-69
2023/08/17 07:44:03;;;;;;;13.02;7.82;;;;;;;24.11;79.85;96743.28;2085319;28;20203;-70
2023/08/17 07:45:06;;;;;;;8.88;6.88;;;;;;;23.94;80.52;96752.94;2085446;28;20200;-70
2023/08/17 07:46:08;;;;;;;9.18;5.78;;;;;;;24.52;78.90;96761.53;2087138;28;20223;-70
2023/08/17 07:47:10;;;;;;;7.95;5.38;;;;;;;24.36;78.24;96750.69;2078771;28;20200;-70
2023/08/17 07:48:11;;;;;;;9.73;6.57;;;;;;;23.76;80.22;96747.53;2083171;28;20208;-70
2023/08/17 07:49:13;;;;;;;14.95;7.30;;;;;;;23.61;80.06;96751.69;2079578;28;20849;-70
2023/08/17 07:50:26;;;;;;;13.32;7.40;;;;;;;23.90;79.47;96751.53;2072959;28;20198;-70
2023/08/17 07:51:30;;;;;;;17.33;8.35;;;;;;;23.43;80.97;96754.31;2079101;28;20274;-70
2023/08/17 07:52:32;;;;;;;13.93;8.65;;;;;;;22.63;84.14;96754.59;2080650;28;20561;-68
2023/08/17 07:53:34;;;;;;;21.23;8.80;;;;;;;22.66;85.73;96755.16;2073561;28;20284;-67
2023/08/17 07:54:35;;;;;;;18.58;8.70;;;;;;;22.83;85.20;96752.75;2081785;28;20533;-68
2023/08/17 07:55:37;;;;;;;21.25;9.25;;;;;;;22.71;85.62;96752.06;2083895;28;20640;-67
2023/08/17 07:56:38;;;;;;;28.55;9.25;;;;;;;22.87;86.22;96750.63;2080620;28;20200;-68
2023/08/17 07:57:40;;;;;;;30.17;9.32;;;;;;;23.27;83.32;96753.09;2083657;28;20196;-68
2023/08/17 07:58:43;;;;;;;20.13;8.82;;;;;;;23.82;82.43;96746.13;2078091;28;20277;-68
2023/08/17 07:59:44;;;;;;;22.23;8.27;;;;;;;23.93;80.67;96751.28;2080588;28;20193;-68
2023/08/17 08:00:45;;;;;;;12.50;7.30;;;;;;;23.77;80.96;96743.91;2082240;28;20227;-68
2023/08/17 08:01:47;;;;;;;21.48;7.15;;;;;;;23.40;81.42;96749.25;2084348;28;20193;-68
2023/08/17 08:02:48;;;;;;;23.80;7.85;;;;;;;23.00;83.97;96749.34;2076474;28;20201;-68
2023/08/17 08:03:50;;;;;;;18.95;7.85;;;;;;;22.87;83.98;96746.16;2083199;28;20200;-68
2023/08/17 08:04:51;;;;;;;10.82;6.97;;;;;;;23.38;84.78;96745.91;2079956;28;20316;-68
2023/08/17 08:05:53;;;;;;;26.55;8.00;;;;;;;24.15;82.14;96751.84;2072204;28;20240;-67
2023/08/17 08:06:54;;;;;;;19.08;8.68;;;;;;;24.34;81.61;96744.66;2081924;28;20212;-68
2023/08/17 08:07:56;;;;;;;15.02;8.48;;;;;;;24.32;79.40;96746.66;2077186;28;20213;-68
2023/08/17 08:08:57;;;;;;;21.08;8.77;;;;;;;23.56;82.25;96748.63;2079568;28;20816;-68
2023/08/17 08:09:59;;;;;;;16.92;8.48;;;;;;;23.40;82.05;96751.91;2081364;28;20543;-68
2023/08/17 08:11:01;;;;;;;20.50;7.85;;;;;;;23.34;82.42;96744.50;2076651;28;20232;-67
2023/08/17 08:12:02;;;;;;;18.00;8.43;;;;;;;23.50;83.88;96750.03;2081857;28;20200;-68
2023/08/17 08:13:04;;;;;;;24.92;7.95;;;;;;;23.87;82.71;96743.84;2080708;28;20655;-68
2023/08/17 08:14:06;;;;;;;29.55;7.53;;;;;;;24.50;81.25;96744.81;2077212;28;20209;-68
2023/08/17 08:15:08;;;;;;;21.05;8.07;;;;;;;24.85;78.86;96744.94;2082125;28;20223;-67
2023/08/17 08:16:09;;;;;;;17.90;9.65;;;;;;;25.17;77.94;96744.34;2083830;28;20239;-68
2023/08/17 08:17:10;;;;;;;16.70;8.95;;;;;;;25.37;78.19;96749.47;2078523;28;20213;-68
2023/08/17 08:18:12;;;;;;;15.05;7.60;;;;;;;25.65;76.93;96743.91;2073273;28;20240;-68
2023/08/17 08:19:14;;;;;;;25.05;7.15;;;;;;;25.76;76.41;96743.63;2069492;28;20197;-68
2023/08/17 08:20:15;;;;;;;19.13;7.78;;;;;;;26.16;74.38;96741.28;2073119;28;20209;-68
2023/08/17 08:21:16;;;;;;;19.08;7.38;;;;;;;26.22;74.94;96749.47;2077245;28;20217;-68
2023/08/17 08:22:18;;;;;;;19.92;7.72;;;;;;;26.21;74.75;96744.31;2072728;28;20201;-68
2023/08/17 08:23:19;;;;;;;14.13;7.18;;;;;;;26.29;74.23;96744.31;2075146;28;20201;-68
2023/08/17 08:24:21;;;;;;;15.45;6.63;;;;;;;26.40;74.17;96751.19;2075315;28;20193;-68
2023/08/17 08:25:37;;;;;;;15.45;6.18;;;;;;;26.74;73.45;96747.56;2073545;28;20198;-68
2023/08/17 08:26:39;;;;;;;13.05;7.00;;;;;;;25.65;73.89;96746.59;2072814;28;20235;-68
2023/08/17 08:27:40;;;;;;;15.60;7.72;;;;;;;24.93;76.02;96750.34;2069925;28;20820;-69
2023/08/17 08:28:42;;;;;;;9.38;7.03;;;;;;;24.76;77.57;96752.09;2070958;28;20592;-69
2023/08/17 08:29:44;;;;;;;17.63;7.03;;;;;;;24.24;79.46;96745.59;2070719;28;20556;-68
2023/08/17 08:30:45;;;;;;;15.13;6.85;;;;;;;24.88;78.57;96753.47;2076136;28;20206;-68
2023/08/17 08:31:47;;;;;;;11.15;5.65;;;;;;;25.63;76.34;96743.25;2074173;28;20252;-68
2023/08/17 08:32:48;;;;;;;8.45;5.20;;;;;;;25.48;73.96;96751.03;2074856;28;20208;-68
2023/08/17 08:33:51;;;;;;;9.35;5.00;;;;;;;25.09;75.88;96744.31;2071759;28;20564;-68
2023/08/17 08:34:53;;;;;;;10.65;5.00;;;;;;;24.66;78.15;96745.97;2075015;28;20289;-68
2023/08/17 08:35:54;;;;;;;10.73;5.90;;;;;;;24.29;79.13;96743.31;2071995;28;20293;-68
2023/08/17 08:36:56;;;;;;;11.07;5.07;;;;;;;24.50;78.39;96735.97;2073277;28;20194;-69
2023/08/17 08:37:59;;;;;;;7.25;4.18;;;;;;;24.78;76.54;96729.56;2073206;28;20198;-68
2023/08/17 08:39:00;;;;;;;13.10;5.25;;;;;;;25.14;75.87;96735.78;2070360;28;20785;-68
2023/08/17 08:40:02;;;;;;;9.32;4.90;;;;;;;24.92;74.81;96738.00;2068799;28;20706;-68
2023/08/17 08:41:04;;;;;;;8.00;4.50;;;;;;;25.22;74.27;96733.19;2069940;28;20236;-68
2023/08/17 08:42:05;;;;;;;8.10;4.00;;;;;;;25.18;72.71;96737.16;2072361;28;20213;-68
2023/08/17 08:43:09;;;;;;;4.78;3.38;;;;;;;25.23;73.04;96732.16;2071741;28;20197;-68
2023/08/17 08:44:11;;;;;;;6.40;4.10;;;;;;;24.96;73.11;96738.53;2075316;28;20353;-68
2023/08/17 08:45:12;;;;;;;7.40;4.63;;;;;;;24.59;74.51;96737.72;2076429;28;20193;-68
2023/08/17 08:46:16;;;;;;;7.85;4.25;;;;;;;24.72;75.42;96738.19;2075846;28;20233;-68
2023/08/17 08:47:18;;;;;;;6.22;3.85;;;;;;;24.90;74.18;96734.63;2070179;28;20718;-68
2023/08/17 08:48:22;;;;;;;6.38;4.32;;;;;;;24.89;74.39;96741.81;2070240;28;20194;-68
2023/08/17 08:49:25;;;;;;;8.93;4.00;;;;;;;25.04;72.82;96731.41;2069219;28;20215;-68
2023/08/17 08:50:31;;;;;;;8.13;4.20;;;;;;;25.20;73.89;96729.81;2069846;28;20202;-68
2023/08/17 08:51:37;;;;;;;7.32;3.97;;;;;;;25.37;73.18;96728.94;2077592;28;20217;-68
2023/08/17 08:52:44;;;;;;;9.05;3.75;;;;;;;25.17;72.36;96728.31;2071572;28;20194;-68
2023/08/17 08:53:55;;;;;;;6.90;3.90;;;;;;;25.58;72.30;96725.88;2073599;28;20202;-68
2023/08/17 08:54:58;;;;;;;8.98;3.72;;;;;;;25.55;72.05;96731.53;2077106;28;20957;-68
2023/08/17 08:56:01;;;;;;;7.10;4.43;;;;;;;25.36;72.60;96729.13;2076620;28;20228;-68
2023/08/17 08:57:06;;;;;;;9.27;4.15;;;;;;;25.02;73.57;96736.06;2070781;28;20195;-68
2023/08/17 08:58:08;;;;;;;5.13;3.40;;;;;;;25.54;73.01;96735.19;2072664;28;20199;-68
2023/08/17 08:59:10;;;;;;;9.20;4.28;;;;;;;25.54;72.75;96737.03;2069039;28;20201;-68
2023/08/17 09:00:12;;;;;;;5.20;3.70;;;;;;;25.84;71.96;96741.00;2069081;28;20706;-68
2023/08/17 09:01:15;;;;;;;10.18;3.88;;;;;;;25.85;72.00;96731.97;2063828;28;20313;-68
2023/08/17 09:02:17;;;;;;;10.07;4.55;;;;;;;25.89;71.84;96738.66;2070834;28;20268;-68
2023/08/17 09:03:22;;;;;;;7.90;3.80;;;;;;;25.69;71.86;96726.59;2070172;28;20207;-68
2023/08/17 09:04:25;;;;;;;6.18;3.90;;;;;;;26.02;72.03;96730.19;2071872;28;20614;-68
2023/08/17 09:05:27;;;;;;;6.80;4.50;;;;;;;25.41;72.45;96726.81;2074708;28;20236;-68
2023/08/17 09:06:32;;;;;;;9.00;4.50;;;;;;;25.54;73.08;96729.84;2070363;28;20233;-68
2023/08/17 09:07:35;;;;;;;9.43;4.00;;;;;;;26.07;72.54;96725.19;2069529;28;20338;-68
2023/08/17 09:08:36;;;;;;;6.68;4.38;;;;;;;26.07;72.31;96732.41;2076601;28;20198;-68
2023/08/17 09:09:38;;;;;;;8.63;3.85;;;;;;;26.23;72.27;96729.75;2073718;28;20193;-68
2023/08/17 09:10:41;;;;;;;5.07;3.45;;;;;;;26.17;71.97;96732.22;2063463;28;20202;-67
2023/08/17 09:11:42;;;;;;;6.95;3.60;;;;;;;25.97;68.83;96723.66;2065210;28;20194;-68
2023/08/17 09:12:47;;;;;;;5.32;3.65;;;;;;;26.06;68.92;96725.38;2072619;28;20672;-68
2023/08/17 09:13:50;;;;;;;7.45;3.80;;;;;;;26.30;67.52;96737.13;2073282;28;20287;-68
2023/08/17 09:14:54;;;;;;;6.43;3.47;;;;;;;26.03;67.47;96729.19;2077047;28;20876;-68
2023/08/17 09:16:00;;;;;;;6.40;3.50;;;;;;;26.39;68.19;96728.09;2075483;28;20212;-69
2023/08/17 09:17:08;;;;;;;8.40;3.78;;;;;;;26.44;68.62;96724.94;2072848;28;20209;-69
2023/08/17 09:18:10;;;;;;;13.35;8.43;;;;;;;26.45;69.90;96726.56;2074369;28;20193;-67
2023/08/17 09:19:14;;;;;;;270.70;214.07;;;;;;;26.83;68.93;96729.63;2074646;28;20233;-66
2023/08/17 09:20:39;;;;;;;9.80;6.25;;;;;;;27.20;69.42;96725.56;2077161;28;20244;-66
2023/08/17 09:21:47;;;;;;;22.08;16.23;;;;;;;28.12;67.04;96734.94;2071445;28;20315;-66
2023/08/17 09:22:51;;;;;;;7.68;5.28;;;;;;;27.71;66.46;96730.59;2070794;28;20624;-65
2023/08/17 09:23:55;;;;;;;7.38;3.13;;;;;;;27.63;66.18;96727.94;2073216;28;20734;-65
2023/08/17 09:25:00;;;;;;;7.93;3.80;;;;;;;27.73;67.51;96733.09;2075452;28;20201;-65
2023/08/17 09:26:10;;;;;;;7.43;3.65;;;;;;;27.87;67.69;96729.66;2074719;28;20242;-65
2023/08/17 09:27:13;;;;;;;7.28;3.42;;;;;;;27.95;67.09;96729.63;2076192;28;20210;-66
2023/08/17 09:28:17;;;;;;;5.82;3.30;;;;;;;28.06;66.38;96733.81;2072425;28;20251;-65
2023/08/17 09:29:20;;;;;;;10.48;3.58;;;;;;;28.12;66.50;96726.88;2071539;28;20225;-65
2023/08/17 09:30:22;;;;;;;6.25;3.35;;;;;;;28.09;66.08;96733.44;2075836;28;20229;-65
2023/08/17 09:31:24;;;;;;;4.53;3.10;;;;;;;28.24;65.48;96733.53;2075163;28;20541;-65
2023/08/17 09:32:30;;;;;;;5.93;3.60;;;;;;;27.77;65.57;96737.09;2071961;28;20835;-66
2023/08/17 09:33:32;;;;;;;4.97;2.90;;;;;;;27.73;65.68;96733.94;2077410;28;20423;-66
2023/08/17 09:34:34;;;;;;;4.60;2.93;;;;;;;27.93;65.39;96733.50;2074571;28;20198;-66
2023/08/17 09:35:35;;;;;;;4.22;2.72;;;;;;;28.04;65.10;96733.13;2073603;28;20510;-65
2023/08/17 09:36:37;;;;;;;8.27;3.40;;;;;;;28.18;63.74;96744.97;2073656;28;20205;-66
2023/08/17 09:37:38;;;;;;;8.93;3.40;;;;;;;28.05;63.86;96739.31;2073536;28;20239;-65
2023/08/17 09:38:40;;;;;;;4.90;2.97;;;;;;;28.04;64.19;96735.81;2073177;28;20453;-66
2023/08/17 09:39:42;;;;;;;7.17;3.13;;;;;;;28.34;64.34;96738.63;2077875;28;20426;-65
2023/08/17 09:40:43;;;;;;;4.93;3.00;;;;;;;28.64;63.98;96734.22;2071570;28;20457;-65
2023/08/17 09:41:45;;;;;;;5.40;3.07;;;;;;;28.66;62.90;96732.22;2074652;28;20428;-65
2023/08/17 09:42:46;;;;;;;7.27;3.50;;;;;;;28.63;63.59;96737.09;2075989;28;20854;-65
2023/08/17 09:43:48;;;;;;;3.70;2.70;;;;;;;29.59;63.38;96736.53;2075357;28;20423;-65
2023/08/17 09:44:50;;;;;;;6.20;3.23;;;;;;;30.08;61.38;96732.38;2069721;28;20424;-65
2023/08/17 09:45:54;;;;;;;10.80;3.00;;;;;;;30.00;59.77;96729.81;2071568;28;20444;-68
2023/08/17 09:46:56;;;;;;;10.60;3.77;;;;;;;28.25;62.24;96727.16;2076207;28;20423;-67
2023/08/17 09:48:01;;;;;;;4.50;3.13;;;;;;;28.40;62.32;96729.88;2079397;28;20801;-67
2023/08/17 09:49:05;;;;;;;20.30;14.63;;;;;;;29.04;61.01;96735.91;2075046;28;20477;-68
2023/08/17 09:50:07;;;;;;;14.90;6.20;;;;;;;29.28;61.18;96727.63;2072659;28;20432;-70
2023/08/17 09:51:09;;;;;;;8.50;4.07;;;;;;;29.26;61.14;96731.50;2072317;28;20474;-68
2023/08/17 09:52:10;;;;;;;14.67;9.87;;;;;;;29.57;60.40;96720.59;2074126;28;20430;-68
2023/08/17 09:53:17;;;;;;;9.33;5.73;;;;;;;30.03;59.78;96719.50;2072822;28;20419;-67
2023/08/17 09:54:22;;;;;;;4.07;3.03;;;;;;;30.17;58.87;96723.19;2067815;28;20432;-68
2023/08/17 09:55:24;;;;;;;6.50;3.10;;;;;;;30.56;58.53;96723.78;2076320;28;20426;-68
2023/08/17 09:56:27;;;;;;;4.57;2.97;;;;;;;31.01;57.95;96727.06;2076426;28;20466;-68
2023/08/17 09:57:29;;;;;;;5.20;2.60;;;;;;;30.94;56.93;96723.47;2071931;28;20567;-68
2023/08/17 09:58:30;;;;;;;5.53;2.77;;;;;;;31.01;56.61;96718.97;2074007;28;20426;-68
2023/08/17 09:59:32;;;;;;;6.33;3.60;;;;;;;30.33;58.84;96718.56;2071888;28;20430;-68
2023/08/17 10:00:45;;;;;;;8.23;3.50;;;;;;;30.30;57.54;96717.91;2073943;28;20472;-67
2023/08/17 10:01:52;;;;;;;5.33;2.77;;;;;;;30.09;58.43;96715.22;2074273;28;20524;-68
2023/08/17 10:03:01;;;;;;;8.23;3.27;;;;;;;30.45;58.34;96719.72;2068276;28;20434;-68
2023/08/17 10:04:08;;;;;;;12.83;2.97;;;;;;;31.00;58.01;96714.63;2075589;28;20454;-68
2023/08/17 10:05:17;;;;;;;13.17;3.23;;;;;;;31.30;57.99;96716.28;2072795;28;20691;-68
2023/08/17 10:06:28;;;;;;;6.63;3.00;;;;;;;31.55;58.34;96719.31;2071498;28;20463;-68
2023/08/17 10:07:31;;;;;;;9.83;3.33;;;;;;;31.92;57.61;96711.81;2076741;28;20422;-68
2023/08/17 10:08:58;;;;;;;12.50;3.33;;;;;;;32.21;57.55;96720.66;2077206;28;20422;-69
2023/08/17 10:10:05;;;;;;;8.80;3.80;;;;;;;32.79;55.34;96722.03;2075006;28;20825;-68
2023/08/17 10:11:07;;;;;;;8.93;2.73;;;;;;;31.48;56.26;96711.22;2068077;28;20508;-68
2023/08/17 10:12:16;;;;;;;7.23;3.20;;;;;;;32.05;55.88;96713.75;2069325;28;20432;-68
2023/08/17 10:13:23;;;;;;;8.53;3.03;;;;;;;32.84;55.43;96714.13;2072057;28;20808;-68
2023/08/17 10:14:33;;;;;;;11.00;3.50;;;;;;;32.47;54.68;96719.91;2070417;28;20781;-68
2023/08/17 10:15:45;;;;;;;11.30;2.90;;;;;;;31.85;57.00;96709.13;2074879;28;20432;-67
2023/08/17 10:16:53;;;;;;;17.80;3.27;;;;;;;31.22;58.29;96711.88;2072585;28;20443;-68
2023/08/17 10:17:57;;;;;;;8.07;3.13;;;;;;;30.64;60.07;96706.66;2074956;28;20476;-66
2023/08/17 10:19:07;;;;;;;13.57;3.97;;;;;;;30.40;60.05;96714.09;2072851;28;20427;-67
2023/08/17 10:20:10;;;;;;;9.90;3.47;;;;;;;30.91;59.09;96710.41;2072080;28;20523;-68
2023/08/17 10:21:27;;;;;;;10.60;3.10;;;;;;;32.15;55.56;96706.09;2072192;28;20463;-68
2023/08/17 10:22:44;;;;;;;7.40;2.90;;;;;;;32.78;55.00;96717.66;2074218;28;20422;-68
2023/08/17 10:23:46;;;;;;;13.63;2.87;;;;;;;33.13;54.46;96712.00;2077188;28;20460;-68
2023/08/17 10:24:49;;;;;;;12.20;2.90;;;;;;;33.49;54.04;96718.84;2071094;28;20467;-68
2023/08/17 10:25:50;;;;;;;6.90;3.13;;;;;;;34.07;52.88;96722.56;2072063;28;20423;-68
2023/08/17 10:26:53;;;;;;;9.73;2.70;;;;;;;34.53;51.88;96724.22;2072215;28;20527;-68
2023/08/17 10:27:55;;;;;;;6.60;2.57;;;;;;;34.53;50.78;96715.28;2079298;28;20940;-69
2023/08/17 10:29:02;;;;;;;6.53;2.90;;;;;;;34.46;51.18;96716.13;2069809;28;20431;-68
2023/08/17 10:30:13;;;;;;;5.33;2.67;;;;;;;32.38;53.56;96723.84;2070215;28;20456;-69
2023/08/17 10:31:15;;;;;;;4.37;2.37;;;;;;;31.08;53.93;96719.91;2069797;28;20505;-68
2023/08/17 10:32:16;;;;;;;6.67;2.87;;;;;;;31.48;54.34;96721.16;2074455;28;20430;-70
2023/08/17 10:33:19;;;;;;;5.70;2.83;;;;;;;31.05;54.77;96722.94;2080103;28;20411;-70
2023/08/17 10:34:20;;;;;;;6.57;3.50;;;;;;;31.52;53.30;96720.56;2077352;28;20430;-70
2023/08/17 10:35:22;;;;;;;8.93;2.97;;;;;;;32.48;52.86;96721.56;2077419;28;20502;-70
2023/08/17 10:36:25;;;;;;;5.97;2.70;;;;;;;33.18;50.15;96715.75;2072347;28;20459;-70
2023/08/17 10:37:27;;;;;;;4.33;2.53;;;;;;;34.05;49.31;96727.41;2075566;28;20495;-68
2023/08/17 10:38:28;;;;;;;6.80;2.50;;;;;;;33.64;48.28;96711.28;2073692;28;20428;-68
2023/08/17 10:39:30;;;;;;;5.50;2.70;;;;;;;34.06;47.92;96723.66;2075919;28;20477;-68
2023/08/17 10:40:36;;;;;;;9.37;2.73;;;;;;;33.87;49.13;96720.00;2071287;28;20428;-68
2023/08/17 10:41:46;;;;;;;10.40;3.37;;;;;;;33.54;49.49;96708.19;2072900;28;21010;-68
2023/08/17 10:42:54;;;;;;;6.77;2.77;;;;;;;33.12;49.80;96713.88;2071788;28;20428;-68
2023/08/17 10:43:57;;;;;;;12.80;3.30;;;;;;;32.28;50.99;96707.16;2076702;28;20423;-68
2023/08/17 10:45:01;;;;;;;14.17;3.10;;;;;;;32.78;51.63;96709.56;2070335;28;20511;-68
2023/08/17 10:46:19;;;;;;;12.63;3.00;;;;;;;33.23;49.62;96712.44;2065345;28;20459;-68
2023/08/17 10:47:25;;;;;;;11.90;3.43;;;;;;;32.07;50.97;96717.91;2065348;28;20914;-68
2023/08/17 10:48:28;;;;;;;17.33;3.20;;;;;;;32.55;50.23;96718.88;2075675;28;20532;-68
2023/08/17 10:49:29;;;;;;;10.03;3.30;;;;;;;32.23;50.84;96716.72;2081600;28;20494;-69
2023/08/17 10:50:32;;;;;;;13.90;3.20;;;;;;;32.80;50.51;96713.72;2081428;28;20406;-68
2023/08/17 10:51:34;;;;;;;8.17;2.63;;;;;;;32.38;51.92;96718.44;2075025;28;20536;-68
2023/08/17 10:52:37;;;;;;;9.20;2.80;;;;;;;32.86;51.44;96715.59;2070747;28;20431;-68
2023/08/17 10:53:43;;;;;;;14.50;3.00;;;;;;;33.95;49.95;96712.44;2075239;28;20496;-70
2023/08/17 10:54:44;;;;;;;22.00;16.80;;;;;;;34.61;49.12;96714.97;2070397;28;20450;-69
2023/08/17 10:55:51;;;;;;;3.60;2.70;;;;;;;33.54;48.79;96711.72;2069325;28;20431;-70
2023/08/17 10:56:53;;;;;;;17.00;12.70;;;;;;;33.65;49.50;96709.41;2068584;28;20435;-70
2023/08/17 10:57:55;;;;;;;10.70;8.10;;;;;;;34.56;48.49;96706.69;2067918;28;20427;-71
2023/08/17 10:59:01;;;;;;;6.37;3.60;;;;;;;34.45;48.51;96702.78;2073724;28;20568;-70
2023/08/17 11:00:31;;;;;;;3.30;2.53;;;;;;;34.46;48.83;96710.72;2072735;28;20443;-70
2023/08/17 11:01:35;;;;;;;4.63;2.60;;;;;;;35.06;46.38;96711.28;2070447;28;21105;-69
2023/08/17 11:02:38;;;;;;;3.40;2.50;;;;;;;34.71;47.49;96712.59;2074064;28;20438;-69
2023/08/17 11:03:42;;;;;;;4.37;2.80;;;;;;;34.50;47.84;96705.69;2075538;28;20526;-70
2023/08/17 11:04:50;;;;;;;3.60;2.30;;;;;;;33.69;48.70;96707.94;2073728;28;20493;-69
2023/08/17 11:05:55;;;;;;;4.83;2.70;;;;;;;33.44;49.58;96705.13;2073711;28;20466;-69
2023/08/17 11:07:03;;;;;;;4.63;2.90;;;;;;;32.46;51.22;96709.31;2069330;28;20431;-69
2023/08/17 11:08:07;;;;;;;6.20;3.00;;;;;;;31.88;52.46;96713.28;2073490;28;20431;-69
2023/08/17 11:09:08;;;;;;;10.67;2.70;;;;;;;32.31;52.53;96701.38;2072951;28;20427;-68
2023/08/17 11:10:20;;;;;;;5.53;2.53;;;;;;;31.86;53.34;96710.78;2076081;28;20427;-69
2023/08/17 11:11:23;;;;;;;5.87;2.93;;;;;;;32.30;51.59;96703.22;2072550;28;20471;-68
2023/08/17 11:12:25;;;;;;;6.27;3.47;;;;;;;30.49;55.19;96701.34;2077891;28;20909;-69
2023/08/17 11:13:33;;;;;;;5.90;3.23;;;;;;;30.03;57.29;96699.81;2079192;28;20434;-68
2023/08/17 11:14:34;;;;;;;9.37;3.00;;;;;;;31.17;55.64;96703.56;2074992;28;20423;-71
2023/08/17 11:15:38;;;;;;;4.40;2.37;;;;;;;32.35;52.89;96705.31;2076795;28;21095;-68
2023/08/17 11:16:40;;;;;;;4.87;3.10;;;;;;;32.21;53.08;96707.16;2070159;28;20767;-68
2023/08/17 11:17:41;;;;;;;5.43;2.70;;;;;;;32.29;52.99;96704.28;2072572;28;20485;-68
2023/08/17 11:18:44;;;;;;;5.93;2.53;;;;;;;32.21;53.17;96704.47;2078161;28;20421;-68
2023/08/17 11:19:45;;;;;;;4.70;3.17;;;;;;;32.82;51.91;96695.41;2066184;28;20466;-68
2023/08/17 11:20:48;;;;;;;4.73;2.80;;;;;;;32.29;52.99;96703.44;2075133;28;20419;-68
2023/08/17 11:21:51;;;;;;;4.63;2.53;;;;;;;32.41;53.40;96699.09;2069347;28;20462;-68
2023/08/17 11:22:52;;;;;;;5.73;3.30;;;;;;;32.93;52.40;96687.72;2072614;28;20423;-68
2023/08/17 11:23:58;;;;;;;4.60;2.90;;;;;;;32.30;52.64;96695.13;2079880;28;20430;-68
2023/08/17 11:25:00;;;;;;;3.30;2.20;;;;;;;31.96;53.04;96691.50;2075626;28;20477;-68
2023/08/17 11:26:02;;;;;;;4.60;3.20;;;;;;;31.28;54.57;96686.81;2073877;28;20534;-68
2023/08/17 11:27:04;;;;;;;3.33;2.60;;;;;;;30.70;55.98;96695.94;2076966;28;20461;-68
2023/08/17 11:28:09;;;;;;;4.13;2.57;;;;;;;30.74;56.29;96699.91;2069174;28;20480;-68
2023/08/17 11:29:11;;;;;;;5.80;3.07;;;;;;;31.07;56.47;96710.13;2076412;28;20893;-68
2023/08/17 11:30:12;;;;;;;12.40;3.00;;;;;;;31.07;56.24;96710.13;2078332;28;20906;-68
2023/08/17 11:31:18;;;;;;;3.93;3.00;;;;;;;31.15;57.40;96716.38;2073203;28;20512;-68
2023/08/17 11:32:19;;;;;;;3.70;2.60;;;;;;;31.05;57.77;96719.44;2078602;28;20479;-68
2023/08/17 11:33:21;;;;;;;9.10;2.50;;;;;;;31.00;58.27;96719.19;2081087;28;21096;-68
2023/08/17 11:34:22;;;;;;;6.37;2.70;;;;;;;30.50;58.08;96719.16;2066342;28;20435;-68
2023/08/17 11:35:24;;;;;;;5.53;3.00;;;;;;;30.31;58.41;96718.78;2072126;28;20530;-68
2023/08/17 11:36:25;;;;;;;4.33;2.90;;;;;;;29.94;59.12;96717.94;2073996;28;20455;-68
2023/08/17 11:37:27;;;;;;;2.80;2.50;;;;;;;30.38;59.12;96716.13;2065087;28;20781;-68
2023/08/17 11:38:32;;;;;;;6.87;3.67;;;;;;;30.26;59.17;96705.88;2075024;28;20426;-68
2023/08/17 11:39:34;;;;;;;7.83;2.97;;;;;;;30.43;59.75;96701.06;2073784;28;20760;-68
2023/08/17 11:40:36;;;;;;;5.73;2.70;;;;;;;30.37;59.97;96712.63;2075939;28;20476;-68
2023/08/17 11:41:37;;;;;;;5.70;3.20;;;;;;;30.65;59.66;96698.38;2072651;28;20435;-68
2023/08/17 11:42:39;;;;;;;3.70;2.73;;;;;;;30.85;60.27;96705.78;2069134;28;20424;-68
2023/08/17 11:43:40;;;;;;;8.20;3.30;;;;;;;30.64;60.11;96709.34;2069729;28;20436;-68
2023/08/17 11:44:42;;;;;;;7.13;3.27;;;;;;;30.37;61.45;96707.25;2080689;28;20426;-68
2023/08/17 11:45:43;;;;;;;4.90;3.43;;;;;;;31.34;60.64;96714.84;2076976;28;20441;-70
2023/08/17 11:46:46;;;;;;;5.80;3.60;;;;;;;31.85;60.30;96719.09;2080375;28;20425;-70
2023/08/17 11:47:48;;;;;;;8.87;3.77;;;;;;;32.82;57.83;96710.78;2076417;28;20423;-70
2023/08/17 11:48:53;;;;;;;5.50;3.83;;;;;;;32.70;58.75;96716.78;2078717;28;20523;-70
2023/08/17 11:50:05;;;;;;;7.37;3.77;;;;;;;33.31;56.46;96714.91;2075244;28;20625;-70
2023/08/17 11:51:31;;;;;;;7.53;4.00;;;;;;;33.92;56.01;96709.34;2073131;28;20821;-68
2023/08/17 11:52:32;;;;;;;7.67;3.97;;;;;;;33.21;57.42;96709.91;2075508;28;20427;-68
2023/08/17 11:53:39;;;;;;;7.43;4.50;;;;;;;33.10;56.77;96712.44;2078183;28;20907;-68